Time;durP1;ratioP1;P1;durP2;ratioP2;P2;SDS_P1;SDS_P2;PMS_P1;PMS_P2;Temp;Humidity;BMP_temperature;BMP_pressure;BME280_temperature;BME280_humidity;BME280_pressure;Samples;Min_cycle;Max_cycle;Signal;HPM_P1;HPM_P2
2023/08/28 00:00:03;;;;;;;5.10;3.40;;;;;;;-146.25;100.00;52276.97;2095617;28;35330;-70
2023/08/28 00:01:06;;;;;;;5.28;3.10;;;;;;;-146.25;100.00;52293.19;2095715;28;20052;-70
2023/08/28 00:02:09;;;;;;;6.53;3.20;;;;;;;-146.25;100.00;52258.72;2095087;28;33712;-70
2023/08/28 00:03:11;;;;;;;8.35;3.25;;;;;;;-146.25;100.00;52303.31;2095921;28;29382;-70
2023/08/28 00:04:13;;;;;;;5.50;3.25;;;;;;;-146.25;100.00;52305.34;2095882;28;35101;-70
2023/08/28 00:05:17;;;;;;;4.82;3.30;;;;;;;-146.25;100.00;52283.03;2095759;28;33349;-72
2023/08/28 00:06:19;;;;;;;7.20;3.10;;;;;;;-146.25;100.00;52201.94;2088142;28;20183;-70
2023/08/28 00:07:23;;;;;;;7.15;3.45;;;;;;;-146.25;100.00;52258.72;2079937;28;20172;-70
2023/08/28 00:08:25;;;;;;;5.57;3.30;;;;;;;-146.25;100.00;52315.47;2095226;28;27910;-70
2023/08/28 00:09:26;;;;;;;10.52;3.72;;;;;;;-146.25;100.00;52295.19;2095906;28;36146;-70
2023/08/28 00:10:28;;;;;;;5.68;2.90;;;;;;;-146.25;100.00;52287.09;2095207;28;36924;-69
2023/08/28 00:11:30;;;;;;;6.40;3.30;;;;;;;-146.25;100.00;52301.28;2095186;28;20037;-70
2023/08/28 00:12:36;;;;;;;5.93;3.45;;;;;;;-146.25;100.00;52293.19;2095831;28;34288;-70
2023/08/28 00:13:40;;;;;;;4.75;3.08;;;;;;;-146.25;100.00;52262.75;2096792;28;32867;-70
2023/08/28 00:14:42;;;;;;;7.13;3.22;;;;;;;-146.25;100.00;52270.88;2097364;28;34689;-70
2023/08/28 00:15:43;;;;;;;4.40;2.90;;;;;;;-146.25;100.00;52276.97;2097369;28;34219;-70
2023/08/28 00:16:47;;;;;;;5.40;3.05;;;;;;;-146.25;100.00;52272.91;2097375;28;37230;-70
2023/08/28 00:17:49;;;;;;;4.70;3.05;;;;;;;-146.25;100.00;52285.06;2096470;28;26815;-70
2023/08/28 00:18:51;;;;;;;8.75;3.40;;;;;;;-146.25;100.00;52266.81;2096823;28;32810;-70
2023/08/28 00:19:52;;;;;;;4.85;2.75;;;;;;;-146.25;100.00;52293.19;2097095;28;32424;-71
2023/08/28 00:20:57;;;;;;;7.53;3.10;;;;;;;-146.25;100.00;52274.94;2097598;28;35613;-70
2023/08/28 00:21:59;;;;;;;6.15;3.42;;;;;;;-146.25;100.00;52242.50;2096681;28;20122;-70
2023/08/28 00:23:00;;;;;;;5.68;3.28;;;;;;;-146.25;100.00;52272.91;2096776;28;36268;-68
2023/08/28 00:24:07;;;;;;;4.18;3.20;;;;;;;-146.25;100.00;52317.50;2097339;28;27266;-69
2023/08/28 00:25:12;;;;;;;3.53;2.60;;;;;;;-146.25;100.00;52262.75;2097801;28;20045;-69
2023/08/28 00:26:14;;;;;;;4.47;2.70;;;;;;;-146.25;100.00;52315.47;2118861;22;29861;-64
2023/08/28 00:27:16;;;;;;;6.93;3.35;;;;;;;-146.25;100.00;52248.56;2098674;28;20060;-64
2023/08/28 00:28:18;;;;;;;5.38;2.90;;;;;;;-146.25;100.00;52246.53;2097864;28;20043;-63
2023/08/28 00:29:19;;;;;;;4.32;3.30;;;;;;;-146.25;100.00;52256.69;2097343;28;31156;-64
2023/08/28 00:30:22;;;;;;;6.07;3.50;;;;;;;-146.25;100.00;52246.53;2105275;28;20048;-64
2023/08/28 00:31:23;;;;;;;4.13;2.97;;;;;;;-146.25;100.00;52295.19;2105040;28;20049;-63
2023/08/28 00:32:26;;;;;;;5.15;3.28;;;;;;;-146.25;100.00;52303.31;2091460;28;20052;-64
2023/08/28 00:33:28;;;;;;;6.00;3.50;;;;;;;-146.25;100.00;52270.88;2080398;28;32036;-63
2023/08/28 00:34:32;;;;;;;9.35;3.35;;;;;;;-146.25;100.00;52266.81;2080354;28;20275;-65
2023/08/28 00:35:34;;;;;;;5.18;3.55;;;;;;;-146.25;100.00;52256.69;2080234;28;20042;-64
2023/08/28 00:36:38;;;;;;;7.65;3.58;;;;;;;-146.25;100.00;52301.28;2080410;28;20045;-64
2023/08/28 00:37:40;;;;;;;5.18;3.78;;;;;;;-146.25;100.00;52266.81;2080715;28;20138;-64
2023/08/28 00:38:42;;;;;;;5.05;3.97;;;;;;;-146.25;100.00;52295.19;2088629;28;20167;-64
2023/08/28 00:39:44;;;;;;;5.13;3.85;;;;;;;-146.25;100.00;52309.41;2080041;28;20058;-64
2023/08/28 00:40:49;;;;;;;7.13;3.83;;;;;;;-146.25;100.00;52268.84;2072198;28;20077;-65
2023/08/28 00:41:51;;;;;;;7.13;3.75;;;;;;;-146.25;100.00;52299.25;2081000;28;20923;-65
2023/08/28 00:42:55;;;;;;;4.72;4.20;;;;;;;-146.25;100.00;52289.13;2080552;28;20038;-65
2023/08/28 00:43:56;;;;;;;6.47;3.90;;;;;;;-146.25;100.00;52258.72;2080374;28;20173;-65
2023/08/28 00:44:58;;;;;;;7.70;3.72;;;;;;;-146.25;100.00;52272.91;2080314;28;20034;-65
2023/08/28 00:46:02;;;;;;;5.20;3.10;;;;;;;-146.25;100.00;52236.41;2080452;28;31395;-65
2023/08/28 00:47:06;;;;;;;5.22;3.60;;;;;;;-146.25;100.00;52287.09;2071013;28;33429;-64
2023/08/28 00:48:12;;;;;;;4.93;3.55;;;;;;;-146.25;100.00;52291.16;2065389;28;20081;-65
2023/08/28 00:49:14;;;;;;;4.90;3.17;;;;;;;-146.25;100.00;52295.19;2081398;28;20899;-66
2023/08/28 00:50:18;;;;;;;7.95;3.50;;;;;;;-146.25;100.00;52270.88;2080158;28;28453;-65
2023/08/28 00:51:20;;;;;;;5.60;3.45;;;;;;;-146.25;100.00;52278.97;2080228;28;21015;-67
2023/08/28 00:52:23;;;;;;;8.75;3.45;;;;;;;-146.25;100.00;52283.03;2072100;28;20050;-65
2023/08/28 00:53:27;;;;;;;5.05;3.50;;;;;;;-146.25;100.00;52311.44;2072076;28;20051;-65
2023/08/28 00:54:30;;;;;;;8.07;3.58;;;;;;;-146.25;100.00;52244.50;2071978;28;22230;-64
2023/08/28 00:55:35;;;;;;;5.18;3.22;;;;;;;-146.25;100.00;52266.81;2064295;28;20133;-65
2023/08/28 00:56:40;;;;;;;4.80;3.60;;;;;;;-146.25;100.00;52297.22;2081874;28;20038;-65
2023/08/28 00:57:42;;;;;;;4.03;3.63;;;;;;;-146.25;100.00;52283.03;2081988;28;26674;-66
2023/08/28 00:58:44;;;;;;;8.15;3.60;;;;;;;-146.25;100.00;52299.25;2087832;28;33598;-65
2023/08/28 00:59:46;;;;;;;5.82;3.65;;;;;;;-146.25;100.00;52264.78;2079984;28;20166;-65
2023/08/28 01:00:48;;;;;;;4.90;3.38;;;;;;;-146.25;100.00;52281.00;2080419;28;20988;-66
2023/08/28 01:01:50;;;;;;;7.13;3.28;;;;;;;-146.25;100.00;52301.28;2079934;28;21049;-66
2023/08/28 01:02:52;;;;;;;6.32;3.30;;;;;;;-146.25;100.00;52303.31;2080214;28;20058;-65
2023/08/28 01:03:56;;;;;;;4.95;2.97;;;;;;;-146.25;100.00;52272.91;2088100;28;20563;-65
2023/08/28 01:04:59;;;;;;;4.50;3.42;;;;;;;-146.25;100.00;52272.91;2080959;28;20045;-65
2023/08/28 01:06:35;;;;;;;7.32;3.40;;;;;;;-146.25;100.00;52258.72;2080655;28;20143;-64
2023/08/28 01:07:55;;;;;;;7.82;3.60;;;;;;;-146.25;100.00;52281.00;2080638;28;26980;-64
2023/08/28 01:09:34;;;;;;;3.88;3.42;;;;;;;-146.25;100.00;52262.75;2071619;28;35640;-63
2023/08/28 01:10:45;;;;;;;9.98;3.28;;;;;;;-146.25;100.00;52283.03;2070497;28;25746;-65
2023/08/28 01:11:53;;;;;;;6.55;3.47;;;;;;;-146.25;100.00;52264.78;2069573;28;27416;-65
2023/08/28 01:13:07;;;;;;;4.05;3.13;;;;;;;-146.25;100.00;52262.75;2073935;28;21086;-65
2023/08/28 01:14:21;;;;;;;6.30;3.05;;;;;;;-146.25;100.00;52289.13;2080014;28;20104;-65
2023/08/28 01:15:27;;;;;;;5.05;3.33;;;;;;;-146.25;100.00;52274.94;2073453;28;29877;-65
2023/08/28 01:16:31;;;;;;;5.13;3.13;;;;;;;-146.25;100.00;52287.09;2071581;28;20181;-65
2023/08/28 01:17:35;;;;;;;5.45;3.22;;;;;;;-146.25;100.00;52307.38;2072932;28;20030;-64
2023/08/28 01:18:37;;;;;;;5.68;3.40;;;;;;;-146.25;100.00;52262.75;2087450;28;30986;-64
2023/08/28 01:19:43;;;;;;;7.57;3.97;;;;;;;-146.25;100.00;52287.09;2081043;28;20026;-64
2023/08/28 01:20:49;;;;;;;4.95;3.40;;;;;;;-146.25;100.00;52299.25;2087848;28;24054;-65
2023/08/28 01:21:57;;;;;;;4.53;2.80;;;;;;;-146.25;100.00;52270.88;2088370;28;27082;-64
2023/08/28 01:23:30;;;;;;;6.30;3.80;;;;;;;-146.25;100.00;52315.47;2071819;28;20168;-65
2023/08/28 01:24:32;;;;;;;5.60;3.35;;;;;;;-146.25;100.00;52313.44;2072608;28;20108;-64
2023/08/28 01:25:35;;;;;;;6.05;3.60;;;;;;;-146.25;100.00;52274.94;2080225;28;20164;-65
2023/08/28 01:26:37;;;;;;;5.30;3.30;;;;;;;-146.25;100.00;52343.88;2079211;28;29301;-65
2023/08/28 01:27:41;;;;;;;3.70;3.00;;;;;;;-146.25;100.00;52305.34;2079867;28;20038;-64
2023/08/28 01:28:43;;;;;;;9.52;3.58;;;;;;;-146.25;100.00;52295.19;2071212;28;20153;-64
2023/08/28 01:30:04;;;;;;;5.35;3.50;;;;;;;-146.25;100.00;52305.34;2071726;28;20183;-64
2023/08/28 01:31:09;;;;;;;5.13;3.17;;;;;;;-146.25;100.00;52295.19;2085360;28;30925;-65
2023/08/28 01:32:12;;;;;;;11.10;3.67;;;;;;;-146.25;100.00;52258.72;2080194;28;20038;-65
2023/08/28 01:33:15;;;;;;;7.30;3.47;;;;;;;-146.25;100.00;52276.97;2079471;28;20092;-64
2023/08/28 01:34:19;;;;;;;4.97;3.33;;;;;;;-146.25;100.00;52295.19;2071431;28;28385;-63
2023/08/28 01:35:31;;;;;;;6.22;3.38;;;;;;;-146.25;100.00;52264.78;2071410;28;20049;-63
2023/08/28 01:36:49;;;;;;;3.63;3.33;;;;;;;-146.25;100.00;52295.19;2080932;28;24961;-64
2023/08/28 01:38:29;;;;;;;5.18;3.53;;;;;;;-146.25;100.00;52293.19;2079455;28;20104;-64
2023/08/28 01:39:41;;;;;;;5.35;3.40;;;;;;;-146.25;100.00;52278.97;2079751;28;20046;-64
2023/08/28 01:40:57;;;;;;;4.93;3.70;;;;;;;-146.25;100.00;52276.97;2070908;28;30900;-63
2023/08/28 01:42:01;;;;;;;5.25;3.40;;;;;;;-146.25;100.00;52293.19;2068288;28;29973;-65
2023/08/28 01:43:12;;;;;;;6.50;3.90;;;;;;;-146.25;100.00;52323.59;2071725;28;21217;-64
2023/08/28 01:44:16;;;;;;;4.25;3.60;;;;;;;-146.25;100.00;52303.31;2072460;28;22242;-65
2023/08/28 01:45:20;;;;;;;4.75;4.30;;;;;;;-146.25;100.00;52319.53;2080372;28;20049;-65
2023/08/28 01:46:22;;;;;;;6.25;3.70;;;;;;;-146.25;100.00;52272.91;2078996;28;20566;-66
2023/08/28 01:47:25;;;;;;;6.30;4.20;;;;;;;-146.25;100.00;52321.56;2078535;28;34770;-65
2023/08/28 01:48:29;;;;;;;4.53;3.92;;;;;;;-146.25;100.00;52331.69;2087898;28;20041;-65
2023/08/28 01:49:33;;;;;;;5.35;4.13;;;;;;;-146.25;100.00;52313.44;2079300;28;20176;-65
2023/08/28 01:50:35;;;;;;;4.90;3.97;;;;;;;-146.25;100.00;52337.78;2078912;28;32748;-65
2023/08/28 01:51:37;;;;;;;4.38;3.97;;;;;;;-146.25;100.00;52313.44;2087567;28;20763;-64
2023/08/28 01:53:02;;;;;;;7.03;3.97;;;;;;;-146.25;100.00;52303.31;2079334;28;20041;-64
2023/08/28 01:54:05;;;;;;;5.80;4.30;;;;;;;-146.25;100.00;52297.22;2081968;28;20076;-64
2023/08/28 01:55:08;;;;;;;7.30;4.40;;;;;;;-146.25;100.00;52293.19;2079755;28;20038;-63
2023/08/28 01:56:09;;;;;;;6.38;4.45;;;;;;;-146.25;100.00;52254.66;2078879;28;20053;-66
2023/08/28 01:57:11;;;;;;;7.22;4.47;;;;;;;-146.25;100.00;52315.47;2079599;28;20088;-63
2023/08/28 01:58:17;;;;;;;11.18;4.95;;;;;;;-146.25;100.00;52291.16;2079102;28;20045;-64
2023/08/28 01:59:19;;;;;;;7.95;4.97;;;;;;;-146.25;100.00;52238.44;2079341;28;20279;-65
2023/08/28 02:00:22;;;;;;;6.45;4.90;;;;;;;-146.25;100.00;52264.78;2072548;28;20120;-64
2023/08/28 02:01:26;;;;;;;4.88;3.83;;;;;;;-146.25;100.00;52327.66;2087439;28;20389;-64
2023/08/28 02:02:29;;;;;;;5.65;4.32;;;;;;;-146.25;100.00;52289.13;2087141;28;20195;-65
2023/08/28 02:03:31;;;;;;;7.18;4.57;;;;;;;-146.25;100.00;52274.94;2079204;28;20947;-66
2023/08/28 02:04:35;;;;;;;6.97;4.43;;;;;;;-146.25;100.00;52291.16;2087598;28;20811;-65
2023/08/28 02:05:37;;;;;;;8.88;5.20;;;;;;;-146.25;100.00;52297.22;2087422;28;20076;-65
2023/08/28 02:06:39;;;;;;;6.10;4.50;;;;;;;-146.25;100.00;52299.25;2087369;28;20188;-64
2023/08/28 02:07:42;;;;;;;4.72;4.30;;;;;;;-146.25;100.00;52266.81;2087691;28;20081;-64
2023/08/28 02:08:45;;;;;;;6.25;4.82;;;;;;;-146.25;100.00;52321.56;2086914;28;26251;-65
2023/08/28 02:09:47;;;;;;;6.18;4.25;;;;;;;-146.25;100.00;52305.34;2087625;28;20176;-64
2023/08/28 02:10:49;;;;;;;7.70;4.90;;;;;;;-146.25;100.00;52311.44;2086598;28;31281;-65
2023/08/28 02:11:52;;;;;;;6.78;5.85;;;;;;;-146.25;100.00;52250.59;2078388;28;28900;-65
2023/08/28 02:12:53;;;;;;;8.20;6.10;;;;;;;-146.25;100.00;52266.81;2079125;28;20077;-65
2023/08/28 02:13:55;;;;;;;7.22;5.93;;;;;;;-146.25;100.00;52323.59;2078864;28;21002;-65
2023/08/28 02:14:57;;;;;;;9.07;5.30;;;;;;;-146.25;100.00;52268.84;2079458;28;21848;-65
2023/08/28 02:16:00;;;;;;;7.20;5.57;;;;;;;-146.25;100.00;52297.22;2088295;28;20030;-64
2023/08/28 02:17:02;;;;;;;6.50;5.70;;;;;;;-146.25;100.00;52311.44;2087422;28;20930;-65
2023/08/28 02:18:05;;;;;;;6.18;5.57;;;;;;;-146.25;100.00;52287.09;2079001;28;29318;-65
2023/08/28 02:19:07;;;;;;;9.45;5.90;;;;;;;-146.25;100.00;52315.47;2087439;28;20050;-64
2023/08/28 02:20:09;;;;;;;8.80;6.13;;;;;;;-146.25;100.00;52303.31;2079181;28;20033;-65
2023/08/28 02:21:11;;;;;;;10.23;6.07;;;;;;;-146.25;100.00;52281.00;2079097;28;21096;-64
2023/08/28 02:22:13;;;;;;;7.10;6.25;;;;;;;-146.25;100.00;52272.91;2087690;28;21053;-65
2023/08/28 02:23:14;;;;;;;11.93;6.80;;;;;;;-146.25;100.00;52293.19;2088120;28;20899;-64
2023/08/28 02:24:16;;;;;;;6.80;5.30;;;;;;;-146.25;100.00;52297.22;2087245;28;20899;-64
2023/08/28 02:25:20;;;;;;;11.25;7.05;;;;;;;-146.25;100.00;52276.97;2087402;28;20048;-63
2023/08/28 02:26:24;;;;;;;13.90;7.53;;;;;;;-146.25;100.00;52270.88;2049073;28;1101180;-65
2023/08/28 02:27:25;;;;;;;11.63;7.32;;;;;;;-146.25;100.00;52315.47;2087263;28;26242;-64
2023/08/28 02:28:27;;;;;;;9.90;7.47;;;;;;;-146.25;100.00;52270.88;2088354;28;20097;-65
2023/08/28 02:29:29;;;;;;;11.57;8.15;;;;;;;-146.25;100.00;52327.66;2096021;28;25142;-64
2023/08/28 02:30:31;;;;;;;11.20;7.80;;;;;;;-146.25;100.00;52295.19;2088321;28;20869;-65
2023/08/28 02:31:32;;;;;;;9.10;7.78;;;;;;;-146.25;100.00;52313.44;2087282;28;27206;-65
2023/08/28 02:32:34;;;;;;;9.18;7.65;;;;;;;-146.25;100.00;52289.13;2087140;28;30039;-65
2023/08/28 02:33:36;;;;;;;14.07;8.60;;;;;;;-146.25;100.00;52315.47;2088585;28;20164;-65
2023/08/28 02:34:38;;;;;;;10.85;8.15;;;;;;;-146.25;100.00;52270.88;2088480;28;22537;-65
2023/08/28 02:35:40;;;;;;;10.70;8.88;;;;;;;-146.25;100.00;52272.91;2087831;28;28544;-65
2023/08/28 02:36:42;;;;;;;13.80;8.65;;;;;;;-146.25;100.00;52262.75;2087559;28;20041;-65
2023/08/28 02:37:46;;;;;;;11.68;9.25;;;;;;;-146.25;100.00;52307.38;2086803;28;34016;-65
2023/08/28 02:38:49;;;;;;;11.15;8.93;;;;;;;-146.25;100.00;52297.22;2096076;28;20103;-65
2023/08/28 02:39:50;;;;;;;12.93;9.00;;;;;;;-146.25;100.00;52274.94;2087308;28;27684;-65
2023/08/28 02:40:52;;;;;;;15.20;9.52;;;;;;;-146.25;100.00;52287.09;2087801;28;20930;-65
2023/08/28 02:41:54;;;;;;;13.02;9.25;;;;;;;-146.25;100.00;52283.03;2095628;28;23831;-66
2023/08/28 02:42:57;;;;;;;15.05;9.85;;;;;;;-146.25;100.00;52321.56;2087645;28;20120;-65
2023/08/28 02:43:59;;;;;;;16.48;9.27;;;;;;;-146.25;100.00;52319.53;2087973;28;20042;-65
2023/08/28 02:45:07;;;;;;;14.20;9.20;;;;;;;-146.25;100.00;52299.25;2088035;28;20172;-64
2023/08/28 02:46:10;;;;;;;13.95;9.70;;;;;;;-146.25;100.00;52303.31;2088505;28;20050;-65
2023/08/28 02:47:15;;;;;;;11.10;8.55;;;;;;;-146.25;100.00;52234.38;2096189;28;20037;-64
2023/08/28 02:48:16;;;;;;;13.32;10.70;;;;;;;-146.25;100.00;52331.69;2095060;28;28336;-64
2023/08/28 02:49:20;;;;;;;12.93;9.80;;;;;;;-146.25;100.00;52297.22;2088530;28;20049;-65
2023/08/28 02:50:24;;;;;;;13.75;10.90;;;;;;;-146.25;100.00;52295.19;2087802;28;20184;-64
2023/08/28 02:51:26;;;;;;;11.68;10.30;;;;;;;-146.25;100.00;52307.38;2088266;28;20054;-65
2023/08/28 02:52:28;;;;;;;13.30;9.98;;;;;;;-146.25;100.00;52295.19;2096160;28;20114;-64
2023/08/28 02:53:30;;;;;;;16.08;11.07;;;;;;;-146.25;100.00;52295.19;2086957;28;35197;-65
2023/08/28 02:54:34;;;;;;;13.23;10.98;;;;;;;-146.25;100.00;52303.31;2079538;28;20814;-64
2023/08/28 02:55:41;;;;;;;13.80;11.00;;;;;;;-146.25;100.00;52319.53;2087655;28;20186;-64
2023/08/28 02:56:44;;;;;;;12.82;10.90;;;;;;;-146.25;100.00;52331.69;2088186;28;20040;-65
2023/08/28 02:57:46;;;;;;;14.43;11.02;;;;;;;-146.25;100.00;52307.38;2088353;28;20131;-64
2023/08/28 02:58:48;;;;;;;16.25;11.52;;;;;;;-146.25;100.00;52313.44;2087931;28;20164;-65
2023/08/28 02:59:50;;;;;;;13.30;10.77;;;;;;;-146.25;100.00;52301.28;2079289;28;20157;-63
2023/08/28 03:00:52;;;;;;;13.43;10.95;;;;;;;-146.25;100.00;52291.16;2088027;28;20091;-64
2023/08/28 03:01:54;;;;;;;13.43;10.63;;;;;;;-146.25;100.00;52341.84;2096308;28;20186;-64
2023/08/28 03:02:56;;;;;;;14.80;11.35;;;;;;;-146.25;100.00;52329.66;2095738;28;20045;-65
2023/08/28 03:03:58;;;;;;;15.18;10.82;;;;;;;-146.25;100.00;52295.19;2095655;28;32257;-64
2023/08/28 03:05:00;;;;;;;13.57;11.13;;;;;;;-146.25;100.00;52341.84;2087504;28;20053;-64
2023/08/28 03:06:02;;;;;;;13.32;10.93;;;;;;;-146.25;100.00;52299.25;2087353;28;31876;-63
2023/08/28 03:07:06;;;;;;;12.88;10.60;;;;;;;-146.25;100.00;52274.94;2079102;28;30469;-65
2023/08/28 03:08:08;;;;;;;12.65;10.55;;;;;;;-146.25;100.00;52319.53;2079734;28;20169;-64
2023/08/28 03:09:12;;;;;;;19.38;10.90;;;;;;;-146.25;100.00;52285.06;2087807;28;20045;-63
2023/08/28 03:10:14;;;;;;;15.85;11.43;;;;;;;-146.25;100.00;52323.59;2086905;28;34382;-63
2023/08/28 03:11:20;;;;;;;14.18;10.55;;;;;;;-146.25;100.00;52315.47;2087640;28;25707;-63
2023/08/28 03:12:22;;;;;;;16.90;10.73;;;;;;;-146.25;100.00;52299.25;2096250;28;21002;-64
2023/08/28 03:13:24;;;;;;;13.40;10.90;;;;;;;-146.25;100.00;52295.19;2087503;28;20043;-63
2023/08/28 03:14:26;;;;;;;12.88;9.75;;;;;;;-146.25;100.00;52351.97;2079357;28;20173;-64
2023/08/28 03:15:31;;;;;;;15.65;10.52;;;;;;;-146.25;100.00;52299.25;2079488;28;20042;-64
2023/08/28 03:16:33;;;;;;;13.40;10.82;;;;;;;-146.25;100.00;52356.03;2079789;28;20050;-65
2023/08/28 03:17:35;;;;;;;14.63;10.40;;;;;;;-146.25;100.00;52287.09;2079200;28;20875;-63
2023/08/28 03:18:39;;;;;;;15.23;9.75;;;;;;;-146.25;100.00;52319.53;2079935;28;20074;-63
2023/08/28 03:19:41;;;;;;;13.82;11.25;;;;;;;-146.25;100.00;52301.28;2079591;28;20176;-64
2023/08/28 03:20:46;;;;;;;19.05;11.23;;;;;;;-146.25;100.00;52281.00;2079470;28;20057;-63
2023/08/28 03:21:48;;;;;;;12.50;10.45;;;;;;;-146.25;100.00;52274.94;2079357;28;20895;-62
2023/08/28 03:22:50;;;;;;;13.77;10.70;;;;;;;-146.25;100.00;52291.16;2079354;28;20031;-65
2023/08/28 03:23:52;;;;;;;14.35;10.63;;;;;;;-146.25;100.00;52333.72;2079512;28;20068;-63
2023/08/28 03:24:54;;;;;;;11.48;10.27;;;;;;;-146.25;100.00;52248.56;2087442;28;31287;-63
2023/08/28 03:25:56;;;;;;;16.30;11.32;;;;;;;-146.25;100.00;52281.00;2087448;28;20095;-63
2023/08/28 03:26:58;;;;;;;13.48;10.90;;;;;;;-146.25;100.00;52307.38;2087671;28;20156;-64
2023/08/28 03:28:01;;;;;;;15.20;10.65;;;;;;;-146.25;100.00;52287.09;2095214;28;33535;-64
2023/08/28 03:29:05;;;;;;;16.42;11.68;;;;;;;-146.25;100.00;52323.59;2095730;28;20045;-64
2023/08/28 03:30:10;;;;;;;16.13;11.63;;;;;;;-146.25;100.00;52285.06;2086999;28;35998;-64
2023/08/28 03:31:12;;;;;;;12.25;10.82;;;;;;;-146.25;100.00;52305.34;2087198;28;29789;-63
2023/08/28 03:32:13;;;;;;;15.13;11.38;;;;;;;-146.25;100.00;52311.44;2087784;28;28532;-64
2023/08/28 03:33:15;;;;;;;14.93;10.98;;;;;;;-146.25;100.00;52262.75;2086750;28;30843;-64
2023/08/28 03:34:20;;;;;;;15.52;10.95;;;;;;;-146.25;100.00;52307.38;2071560;28;20050;-63
2023/08/28 03:35:21;;;;;;;18.08;10.82;;;;;;;-146.25;100.00;52331.69;2079562;28;32698;-63
2023/08/28 03:36:23;;;;;;;14.48;11.45;;;;;;;-146.25;100.00;52289.13;2088144;28;24769;-63
2023/08/28 03:37:26;;;;;;;12.18;10.68;;;;;;;-146.25;100.00;52295.19;2088168;28;20034;-64
2023/08/28 03:38:31;;;;;;;14.93;10.85;;;;;;;-146.25;100.00;52378.34;2095922;28;20051;-65
2023/08/28 03:39:33;;;;;;;13.65;11.13;;;;;;;-146.25;100.00;52347.91;2087477;28;20049;-64
2023/08/28 03:40:38;;;;;;;13.05;10.40;;;;;;;-146.25;100.00;52305.34;2079907;28;20882;-64
2023/08/28 03:41:39;;;;;;;14.45;11.05;;;;;;;-146.25;100.00;52303.31;2071627;28;20070;-64
2023/08/28 03:42:41;;;;;;;12.25;10.75;;;;;;;-146.25;100.00;52335.75;2078902;28;25777;-63
2023/08/28 03:43:45;;;;;;;14.73;10.52;;;;;;;-146.25;100.00;52301.28;2095884;28;32180;-63
2023/08/28 03:44:47;;;;;;;16.98;11.40;;;;;;;-146.25;100.00;52335.75;2095818;28;20834;-64
2023/08/28 03:45:48;;;;;;;14.77;9.85;;;;;;;-146.25;100.00;52303.31;2088158;28;20397;-64
2023/08/28 03:46:50;;;;;;;17.25;11.20;;;;;;;-146.25;100.00;52291.16;2079992;28;27290;-63
2023/08/28 03:47:54;;;;;;;13.23;11.02;;;;;;;-146.25;100.00;52339.81;2087454;28;20159;-63
2023/08/28 03:48:56;;;;;;;14.82;10.68;;;;;;;-146.25;100.00;52317.50;2096581;28;20083;-64
2023/08/28 03:49:58;;;;;;;15.68;10.88;;;;;;;-146.25;100.00;52289.13;2088954;28;20166;-63
2023/08/28 03:51:01;;;;;;;15.77;11.38;;;;;;;-146.25;100.00;52319.53;2088838;28;24780;-63
2023/08/28 03:52:03;;;;;;;18.30;12.50;;;;;;;-146.25;100.00;52276.97;2097223;28;20861;-63
2023/08/28 03:53:05;;;;;;;19.15;12.13;;;;;;;-146.25;100.00;52347.91;2080392;28;20161;-63
2023/08/28 03:54:12;;;;;;;16.02;12.30;;;;;;;-146.25;100.00;52276.97;2080817;28;28633;-65
2023/08/28 03:55:17;;;;;;;16.73;12.13;;;;;;;-146.25;100.00;52303.31;2088586;28;20026;-64
2023/08/28 03:56:18;;;;;;;19.35;12.40;;;;;;;-146.25;100.00;52307.38;2088802;28;20042;-63
2023/08/28 03:57:23;;;;;;;19.45;12.95;;;;;;;-146.25;100.00;52307.38;2089161;28;20078;-62
2023/08/28 03:58:29;;;;;;;16.27;12.15;;;;;;;-146.25;100.00;52341.84;2089425;28;23736;-64
2023/08/28 03:59:31;;;;;;;14.88;12.55;;;;;;;-146.25;100.00;52305.34;2088786;28;20205;-63
2023/08/28 04:00:33;;;;;;;17.65;12.48;;;;;;;-146.25;100.00;52311.44;2080250;28;33820;-64
2023/08/28 04:01:35;;;;;;;18.45;13.32;;;;;;;-146.25;100.00;52315.47;2088441;28;20069;-63
2023/08/28 04:02:37;;;;;;;17.05;12.63;;;;;;;-146.25;100.00;52254.66;2088823;28;21192;-64
2023/08/28 04:03:39;;;;;;;16.15;12.18;;;;;;;-146.25;100.00;52323.59;2080796;28;20046;-64
2023/08/28 04:04:42;;;;;;;14.68;12.15;;;;;;;-146.25;100.00;52311.44;2080125;28;25537;-63
2023/08/28 04:05:52;;;;;;;21.02;12.35;;;;;;;-146.25;100.00;52281.00;2088722;28;27256;-64
2023/08/28 04:06:58;;;;;;;14.38;11.45;;;;;;;-146.25;100.00;52311.44;2088559;28;20078;-63
2023/08/28 04:08:00;;;;;;;18.02;12.38;;;;;;;-146.25;100.00;52311.44;2080841;28;25169;-63
2023/08/28 04:09:02;;;;;;;18.13;13.40;;;;;;;-146.25;100.00;52301.28;2088998;28;22160;-64
2023/08/28 04:10:08;;;;;;;19.95;13.80;;;;;;;-146.25;100.00;52313.44;2089525;28;20077;-63
2023/08/28 04:11:13;;;;;;;16.55;13.00;;;;;;;-146.25;100.00;52285.06;2088498;28;26726;-64
2023/08/28 04:12:15;;;;;;;18.50;12.98;;;;;;;-146.25;100.00;52283.03;2080823;28;23034;-63
2023/08/28 04:13:16;;;;;;;19.92;12.70;;;;;;;-146.25;100.00;52311.44;2088781;28;20037;-63
2023/08/28 04:14:18;;;;;;;17.70;13.45;;;;;;;-146.25;100.00;52319.53;2097041;28;20155;-64
2023/08/28 04:15:20;;;;;;;17.05;12.10;;;;;;;-146.25;100.00;52319.53;2080309;28;20164;-63
2023/08/28 04:16:23;;;;;;;17.58;12.88;;;;;;;-146.25;100.00;52323.59;2081111;28;20038;-63
2023/08/28 04:17:25;;;;;;;19.73;13.68;;;;;;;-146.25;100.00;52299.25;2088191;28;24480;-64
2023/08/28 04:18:30;;;;;;;21.27;13.55;;;;;;;-146.25;100.00;52319.53;2088707;28;20902;-63
2023/08/28 04:19:32;;;;;;;18.23;14.00;;;;;;;-146.25;100.00;52347.91;2089520;28;20144;-65
2023/08/28 04:20:34;;;;;;;17.83;14.23;;;;;;;-146.25;100.00;52319.53;2088638;28;20041;-64
2023/08/28 04:21:38;;;;;;;18.98;13.95;;;;;;;-146.25;100.00;52293.19;2087906;28;30129;-64
2023/08/28 04:22:44;;;;;;;21.95;14.90;;;;;;;-146.25;100.00;52303.31;2088409;28;28455;-63
2023/08/28 04:23:46;;;;;;;17.10;13.50;;;;;;;-146.25;100.00;52315.47;2064788;28;20047;-63
2023/08/28 04:24:52;;;;;;;22.33;15.95;;;;;;;-146.25;100.00;52283.03;2064926;28;27913;-63
2023/08/28 04:25:54;;;;;;;20.67;14.25;;;;;;;-146.25;100.00;52301.28;2080381;28;20046;-66
2023/08/28 04:26:55;;;;;;;17.98;14.60;;;;;;;-146.25;100.00;52295.19;2088792;28;28586;-63
2023/08/28 04:27:57;;;;;;;22.13;14.10;;;;;;;-146.25;100.00;52319.53;2089588;28;20045;-64
2023/08/28 04:29:02;;;;;;;17.75;14.43;;;;;;;-146.25;100.00;52295.19;2089474;28;20033;-64
2023/08/28 04:30:09;;;;;;;22.30;14.68;;;;;;;-146.25;100.00;52321.56;2096814;28;20144;-64
2023/08/28 04:31:12;;;;;;;20.02;14.07;;;;;;;-146.25;100.00;52301.28;2088703;28;20151;-63
2023/08/28 04:32:14;;;;;;;22.48;14.85;;;;;;;-146.25;100.00;52313.44;2080782;28;32327;-63
2023/08/28 04:33:16;;;;;;;22.08;15.55;;;;;;;-146.25;100.00;52291.16;2088070;28;30678;-63
2023/08/28 04:34:18;;;;;;;20.20;14.35;;;;;;;-146.25;100.00;52313.44;2096880;28;20180;-64
2023/08/28 04:35:20;;;;;;;18.58;14.30;;;;;;;-146.25;100.00;52327.66;2080374;28;21001;-63
2023/08/28 04:36:24;;;;;;;19.67;13.88;;;;;;;-146.25;100.00;52325.63;2080692;28;20042;-64
2023/08/28 04:37:27;;;;;;;20.67;14.80;;;;;;;-146.25;100.00;52335.75;2096709;28;20960;-64
2023/08/28 04:38:28;;;;;;;18.58;13.52;;;;;;;-146.25;100.00;52331.69;2088477;28;24086;-63
2023/08/28 04:39:31;;;;;;;20.52;14.10;;;;;;;-146.25;100.00;52295.19;2088549;28;20957;-64
2023/08/28 04:40:35;;;;;;;16.42;12.50;;;;;;;-146.25;100.00;52315.47;2096758;28;20131;-64
2023/08/28 04:41:36;;;;;;;18.83;13.82;;;;;;;-146.25;100.00;52305.34;2087880;28;24493;-64
2023/08/28 04:42:38;;;;;;;19.15;13.00;;;;;;;-146.25;100.00;52291.16;2079818;28;32381;-64
2023/08/28 04:43:40;;;;;;;18.30;13.13;;;;;;;-146.25;100.00;52345.91;2079962;28;33430;-63
2023/08/28 04:44:42;;;;;;;16.60;13.43;;;;;;;-146.25;100.00;52323.59;2080310;28;20042;-64
2023/08/28 04:45:44;;;;;;;18.85;14.38;;;;;;;-146.25;100.00;52289.13;2087888;28;35844;-64
2023/08/28 04:46:48;;;;;;;20.83;14.90;;;;;;;-146.25;100.00;52331.69;2088338;28;20045;-64